Time;durP1;ratioP1;P1;durP2;ratioP2;P2;SDS_P1;SDS_P2;PMS_P1;PMS_P2;Temp;Humidity;BMP_temperature;BMP_pressure;BME280_temperature;BME280_humidity;BME280_pressure;Samples;Min_cycle;Max_cycle;Signal;HPM_P1;HPM_P2
2023/10/10 00:02:20;;;;;;;9.23;3.85;;;15.70;99.90;;;;;;5084266;28;20056;-71
2023/10/10 00:04:49;;;;;;;10.10;4.13;;;16.10;99.90;;;;;;5084639;28;20050;-71
2023/10/10 00:07:16;;;;;;;7.28;4.05;;;15.70;99.90;;;;;;5085663;28;20036;-71
2023/10/10 00:09:45;;;;;;;7.95;3.60;;;15.90;99.90;;;;;;5085938;28;20063;-71
2023/10/10 00:12:25;;;;;;;9.57;4.70;;;16.00;99.90;;;;;;5085424;28;20386;-71
2023/10/10 00:14:52;;;;;;;9.90;4.05;;;;;;;;;;5083455;28;20770;-71
2023/10/10 00:17:20;;;;;;;9.90;4.28;;;15.90;99.90;;;;;;5085410;28;20044;-71
2023/10/10 00:19:54;;;;;;;10.48;4.38;;;;;;;;;;5083957;28;20051;-71
2023/10/10 00:22:28;;;;;;;5.82;4.18;;;15.80;99.90;;;;;;5083822;28;20611;-71
2023/10/10 00:24:56;;;;;;;6.43;3.95;;;;;;;;;;5084370;28;20052;-71
2023/10/10 00:27:24;;;;;;;10.45;4.43;;;;;;;;;;5083658;28;20048;-71
2023/10/10 00:29:49;;;;;;;11.25;4.18;;;15.90;99.90;;;;;;5085156;28;20044;-71
2023/10/10 00:32:22;;;;;;;10.65;4.40;;;15.90;99.90;;;;;;5083798;28;20872;-71
2023/10/10 00:34:49;;;;;;;6.68;3.75;;;15.80;99.90;;;;;;5083833;28;20146;-71
2023/10/10 00:37:26;;;;;;;9.60;4.45;;;15.70;99.90;;;;;;5084095;28;20497;-71
2023/10/10 00:39:53;;;;;;;10.52;4.00;;;;;;;;;;5085241;28;20071;-71
2023/10/10 00:42:41;;;;;;;7.07;3.75;;;15.80;99.90;;;;;;5083764;28;20501;-71
2023/10/10 00:45:09;;;;;;;9.60;4.15;;;15.80;99.90;;;;;;5084572;28;20047;-71
2023/10/10 00:47:43;;;;;;;7.10;4.13;;;15.70;99.90;;;;;;5085327;28;20040;-71
2023/10/10 00:50:16;;;;;;;7.55;4.00;;;15.70;99.90;;;;;;5080114;28;20068;-71
2023/10/10 00:52:55;;;;;;;9.25;4.50;;;15.90;99.90;;;;;;5083661;28;20048;-71
2023/10/10 00:55:22;;;;;;;9.35;4.70;;;;;;;;;;5083714;28;20055;-71
2023/10/10 00:57:52;;;;;;;10.35;4.07;;;15.90;99.90;;;;;;5084669;28;20089;-71
2023/10/10 01:00:20;;;;;;;12.32;4.07;;;;;;;;;;5085100;28;20047;-71
2023/10/10 01:02:46;;;;;;;9.20;4.57;;;15.70;99.90;;;;;;5084555;28;20524;-71
2023/10/10 01:05:12;;;;;;;11.70;3.53;;;15.80;99.90;;;;;;5084964;28;20119;-71
2023/10/10 01:07:47;;;;;;;9.50;4.10;;;15.80;99.90;;;;;;5095057;28;20131;-71
2023/10/10 01:10:16;;;;;;;5.57;4.07;;;;;;;;;;5083194;28;20051;-72
2023/10/10 01:12:42;;;;;;;8.82;4.15;;;15.90;99.90;;;;;;5083174;28;20043;-71
2023/10/10 01:15:24;;;;;;;10.30;4.18;;;15.90;99.90;;;;;;5084556;28;20794;-71
2023/10/10 01:17:50;;;;;;;13.07;4.55;;;;;;;;;;5083390;28;20144;-71
2023/10/10 01:20:20;;;;;;;8.55;4.78;;;15.90;99.90;;;;;;5084936;28;20702;-71
2023/10/10 01:22:48;;;;;;;8.27;3.70;;;16.10;99.90;;;;;;5086847;28;20044;-71
2023/10/10 01:28:02;;;;;;;7.25;3.75;;;15.90;99.90;;;;;;5084373;28;20052;-71
2023/10/10 01:33:16;;;;;;;9.30;4.10;;;;;;;;;;5086887;28;20047;-71
2023/10/10 01:35:43;;;;;;;9.90;4.38;;;16.20;99.90;;;;;;5083278;28;21275;-71
2023/10/10 01:38:55;;;;;;;10.20;3.28;;;16.00;99.90;;;;;;5086362;28;20039;-71
2023/10/10 01:41:31;;;;;;;7.70;3.58;;;16.00;99.90;;;;;;5085028;28;20501;-71
2023/10/10 01:44:12;;;;;;;8.98;4.10;;;15.90;99.90;;;;;;5088025;28;20538;-71
2023/10/10 01:46:41;;;;;;;6.90;3.28;;;15.90;99.90;;;;;;5086693;28;20036;-71
2023/10/10 01:49:13;;;;;;;5.47;3.13;;;15.80;99.90;;;;;;5086585;28;20815;-71
2023/10/10 01:51:43;;;;;;;9.32;2.92;;;15.80;99.90;;;;;;5088038;28;20044;-71
2023/10/10 01:54:18;;;;;;;5.68;2.60;;;15.90;99.90;;;;;;5087868;28;20040;-71
2023/10/10 01:56:44;;;;;;;8.95;2.92;;;;;;;;;;5087835;28;20043;-71
2023/10/10 01:59:14;;;;;;;7.47;3.60;;;;;;;;;;5086507;28;20147;-71
2023/10/10 02:01:41;;;;;;;10.43;3.42;;;15.80;99.90;;;;;;5087487;28;20753;-71
2023/10/10 02:04:07;;;;;;;6.50;3.22;;;15.80;99.90;;;;;;5086237;28;20044;-71
2023/10/10 02:06:39;;;;;;;6.85;3.13;;;15.80;99.90;;;;;;5086267;28;20116;-71
2023/10/10 02:09:12;;;;;;;11.18;3.78;;;;;;;;;;5086507;28;20035;-71
2023/10/10 02:11:50;;;;;;;11.55;3.90;;;15.70;99.90;;;;;;5084673;28;20090;-71
2023/10/10 02:14:19;;;;;;;7.40;3.65;;;15.60;99.90;;;;;;5069374;28;20119;-71
2023/10/10 02:16:48;;;;;;;7.22;3.40;;;15.60;99.90;;;;;;5087432;28;20040;-71
2023/10/10 02:19:27;;;;;;;7.70;3.95;;;15.80;99.90;;;;;;5087423;28;20056;-71
2023/10/10 02:22:19;;;;;;;9.20;4.38;;;;;;;;;;5083518;28;20059;-71
2023/10/10 02:24:49;;;;;;;10.52;4.05;;;;;;;;;;5087679;28;20047;-71
2023/10/10 02:27:19;;;;;;;11.52;4.43;;;15.70;99.90;;;;;;5086282;28;20053;-71
2023/10/10 02:29:49;;;;;;;7.25;4.05;;;15.70;99.90;;;;;;5087688;28;20050;-71
2023/10/10 02:32:21;;;;;;;8.75;4.18;;;15.70;99.90;;;;;;5084705;28;20520;-71
2023/10/10 02:35:00;;;;;;;5.68;4.25;;;;;;;;;;5086173;28;20060;-71
2023/10/10 02:40:06;;;;;;;11.05;4.47;;;;;;;;;;5085579;28;20059;-71
2023/10/10 02:42:33;;;;;;;12.43;5.78;;;;;;;;;;5085186;28;20158;-71
2023/10/10 02:44:59;;;;;;;9.65;4.57;;;15.70;99.90;;;;;;5085638;28;20139;-71
2023/10/10 02:47:32;;;;;;;13.75;5.00;;;;;;;;;;5085778;28;20101;-71
2023/10/10 02:50:45;;;;;;;13.60;6.15;;;15.80;99.90;;;;;;5085723;28;20123;-71
2023/10/10 02:53:00;;;;;;;11.35;5.40;;;;;;;;;;5075022;28;20047;-71
2023/10/10 02:55:33;;;;;;;11.23;6.23;;;15.60;99.90;;;;;;5085483;28;20048;-71
2023/10/10 02:57:59;;;;;;;20.63;6.80;;;;;;;;;;5085263;28;20044;-71
2023/10/10 03:02:54;;;;;;;12.80;7.13;;;;;;;;;;5086268;28;20130;-71
2023/10/10 03:05:39;;;;;;;13.43;8.73;;;15.60;99.90;;;;;;5085655;28;20060;-71
2023/10/10 03:08:13;;;;;;;19.40;8.93;;;15.40;99.90;;;;;;5084314;28;20040;-71
2023/10/10 03:10:46;;;;;;;19.60;8.82;;;15.50;99.90;;;;;;5092053;28;20050;-71
2023/10/10 03:13:27;;;;;;;14.82;8.70;;;15.60;99.90;;;;;;5084912;28;20399;-71
2023/10/10 03:15:55;;;;;;;20.10;9.02;;;15.60;99.90;;;;;;5080383;28;20056;-71
2023/10/10 03:18:29;;;;;;;20.67;9.25;;;15.60;99.90;;;;;;5086178;28;20083;-71
2023/10/10 03:23:41;;;;;;;18.90;10.07;;;15.70;99.90;;;;;;5085014;28;20131;-71
2023/10/10 03:26:06;;;;;;;17.10;9.68;;;15.60;99.90;;;;;;5084645;28;20120;-71
2023/10/10 03:28:40;;;;;;;19.27;10.40;;;;;;;;;;5085138;28;20754;-71
2023/10/10 03:33:38;;;;;;;18.23;10.38;;;15.60;99.90;;;;;;5086003;28;20052;-71
2023/10/10 03:36:13;;;;;;;18.25;10.93;;;15.70;99.90;;;;;;5085681;28;20043;-71
2023/10/10 05:23:30;;;;;;;30.88;17.58;;;;;;;;;;5087215;28;20048;-70
2023/10/10 05:25:56;;;;;;;35.92;17.20;;;;;;;;;;5087206;28;20474;-70
2023/10/10 05:28:23;;;;;;;38.80;18.40;;;15.20;99.90;;;;;;5086869;28;20735;-70
2023/10/10 05:30:49;;;;;;;27.88;16.50;;;;;;;;;;5086908;28;20472;-71
2023/10/10 05:33:19;;;;;;;30.38;17.40;;;15.20;99.90;;;;;;5086755;28;20046;-71
2023/10/10 05:35:48;;;;;;;31.77;18.55;;;;;;;;;;5088091;28;20043;-71
2023/10/10 05:38:17;;;;;;;33.60;18.38;;;;;;;;;;5086586;28;20047;-70
2023/10/10 05:40:43;;;;;;;29.52;17.92;;;15.20;99.90;;;;;;5086429;28;20032;-71
2023/10/10 05:43:14;;;;;;;33.45;17.65;;;15.10;99.90;;;;;;5069382;28;20569;-71
2023/10/10 05:45:40;;;;;;;29.80;17.02;;;;;;;;;;5087830;28;20044;-71
2023/10/10 05:48:06;;;;;;;36.95;17.30;;;;;;;;;;5086366;28;20062;-71
2023/10/10 05:50:35;;;;;;;32.13;17.77;;;15.10;99.90;;;;;;5086392;28;20047;-71
2023/10/10 05:53:03;;;;;;;32.70;18.10;;;15.20;99.90;;;;;;5086568;28;20413;-71
2023/10/10 05:58:52;;;;;;;32.75;18.08;;;;;;;;;;5083402;28;20044;-70
2023/10/10 06:01:18;;;;;;;38.63;19.23;;;15.20;99.90;;;;;;5085650;28;20083;-71
2023/10/10 06:03:45;;;;;;;30.63;18.80;;;;;;;;;;5092690;28;20044;-70
2023/10/10 06:06:12;;;;;;;32.65;18.23;;;;;;;;;;5087149;28;20043;-70
2023/10/10 06:08:41;;;;;;;34.15;17.50;;;15.40;99.90;;;;;;5087322;28;20059;-71
2023/10/10 06:11:13;;;;;;;33.75;17.80;;;15.10;99.90;;;;;;5087473;28;20047;-71
2023/10/10 06:13:40;;;;;;;31.88;17.55;;;;;;;;;;5094519;28;20091;-70
2023/10/10 06:16:06;;;;;;;34.42;19.63;;;15.30;99.90;;;;;;5086010;28;20040;-71
2023/10/10 06:18:32;;;;;;;31.90;17.23;;;;;;;;;;5085813;28;20170;-71
2023/10/10 06:21:02;;;;;;;32.78;18.98;;;15.20;99.90;;;;;;5081470;28;20130;-70
2023/10/10 06:23:32;;;;;;;31.80;19.20;;;15.30;99.90;;;;;;5085615;28;20044;-70
2023/10/10 06:25:58;;;;;;;34.85;18.95;;;15.30;99.90;;;;;;5085646;28;20096;-70
2023/10/10 06:28:25;;;;;;;33.95;19.15;;;15.20;99.90;;;;;;5087119;28;20075;-70
2023/10/10 06:30:52;;;;;;;30.75;18.40;;;;;;;;;;5085332;28;20520;-70
2023/10/10 06:33:27;;;;;;;35.42;18.90;;;15.20;99.90;;;;;;5085518;28;20055;-69
2023/10/10 06:36:01;;;;;;;33.25;17.48;;;15.40;99.90;;;;;;5084080;28;20565;-69
2023/10/10 06:38:27;;;;;;;32.72;18.50;;;;;;;;;;5083570;28;20044;-70
2023/10/10 06:40:53;;;;;;;32.63;17.90;;;15.40;99.90;;;;;;5087329;28;20039;-70
2023/10/10 06:43:20;;;;;;;32.17;17.58;;;15.60;99.90;;;;;;5089683;28;20040;-70
2023/10/10 06:45:54;;;;;;;30.85;17.10;;;;;;;;;;5086662;28;20404;-70
2023/10/10 06:48:25;;;;;;;36.45;20.08;;;;;;;;;;5087772;28;20373;-70
2023/10/10 06:50:51;;;;;;;34.22;19.92;;;;;;;;;;5085198;28;20082;-70
2023/10/10 06:53:35;;;;;;;35.72;20.88;;;15.50;99.90;;;;;;5086978;28;20044;-70
2023/10/10 06:56:14;;;;;;;33.13;19.23;;;15.50;99.90;;;;;;5086685;28;20048;-70
2023/10/10 06:58:43;;;;;;;40.25;21.65;;;15.50;99.90;;;;;;5085078;28;20043;-70
2023/10/10 07:01:11;;;;;;;51.08;23.77;;;;;;;;;;5091467;28;20036;-70
2023/10/10 07:03:46;;;;;;;50.67;24.25;;;15.60;99.90;;;;;;5091405;28;20047;-69
2023/10/10 07:06:12;;;;;;;;;;;15.40;99.90;;;;;;5089615;28;20747;-69
2023/10/10 07:08:38;;;;;;;50.20;25.25;;;;;;;;;;5094818;28;19920;-70
2023/10/10 07:11:04;;;;;;;54.88;25.65;;;15.60;99.90;;;;;;5087067;28;20046;-69
2023/10/10 07:13:30;;;;;;;51.45;26.20;;;;;;;;;;5094265;28;20070;-69
2023/10/10 07:15:56;;;;;;;55.65;27.73;;;15.70;99.90;;;;;;5090762;28;20050;-70
2023/10/10 07:18:23;;;;;;;49.70;26.67;;;;;;;;;;5086935;28;20044;-70
2023/10/10 07:23:39;;;;;;;50.20;26.80;;;;;;;;;;5085191;28;20488;-69
2023/10/10 07:26:19;;;;;;;51.75;27.83;;;15.80;99.90;;;;;;5087396;28;20035;-70
2023/10/10 07:28:48;;;;;;;51.85;26.67;;;16.00;99.90;;;;;;5081641;28;20064;-70
2023/10/10 07:31:17;;;;;;;55.33;27.63;;;15.60;99.90;;;;;;5084597;28;20067;-70
2023/10/10 07:33:55;;;;;;;51.83;27.95;;;15.60;99.90;;;;;;5082958;28;20078;-69
2023/10/10 07:36:25;;;;;;;55.75;28.60;;;16.00;99.90;;;;;;5080376;28;20545;-69
2023/10/10 07:38:54;;;;;;;53.97;28.52;;;16.00;99.90;;;;;;5067386;28;20040;-69
2023/10/10 07:41:27;;;;;;;55.25;29.40;;;15.90;99.90;;;;;;5083791;28;20093;-68
2023/10/10 07:43:58;;;;;;;55.40;28.50;;;16.00;99.90;;;;;;5084164;28;20039;-69
2023/10/10 07:46:24;;;;;;;66.28;30.40;;;;;;;;;;5085423;28;20040;-69
2023/10/10 07:48:54;;;;;;;63.10;30.27;;;;;;;;;;5089325;28;20123;-70
2023/10/10 07:51:29;;;;;;;63.65;32.30;;;16.30;99.90;;;;;;5083801;28;20079;-68
2023/10/10 07:54:11;;;;;;;60.92;32.13;;;16.20;99.90;;;;;;5092600;28;20088;-70
2023/10/10 07:56:44;;;;;;;62.28;31.65;;;;;;;;;;5093408;28;20715;-70
2023/10/10 07:59:13;;;;;;;62.22;33.60;;;16.50;99.90;;;;;;5091387;28;20431;-68
2023/10/10 08:01:41;;;;;;;67.07;34.13;;;16.40;99.90;;;;;;5084844;28;20078;-69
2023/10/10 08:04:07;;;;;;;60.95;32.55;;;;;;;;;;5086091;28;20724;-69
2023/10/10 08:06:33;;;;;;;58.58;32.35;;;;;;;;;;5088202;28;20046;-70
2023/10/10 08:09:18;;;;;;;57.78;32.42;;;;;;;;;;5091923;28;20044;-69
2023/10/10 08:11:47;;;;;;;59.53;33.67;;;16.30;99.90;;;;;;5085025;28;20048;-69
2023/10/10 08:14:13;;;;;;;62.78;33.03;;;16.50;99.90;;;;;;5084191;28;20425;-69
2023/10/10 08:16:41;;;;;;;69.47;34.47;;;16.50;99.90;;;;;;5089912;28;20073;-70
2023/10/10 08:19:10;;;;;;;61.95;34.20;;;16.40;99.90;;;;;;5084980;28;20790;-69
2023/10/10 08:21:39;;;;;;;66.47;32.88;;;16.40;99.90;;;;;;5082210;28;20048;-70
2023/10/10 08:24:11;;;;;;;62.90;35.00;;;16.60;99.90;;;;;;5080435;28;20036;-68
2023/10/10 08:26:41;;;;;;;62.78;34.15;;;;;;;;;;5084170;28;20614;-69
2023/10/10 08:29:11;;;;;;;69.05;34.33;;;16.60;99.90;;;;;;5086325;28;20044;-68
2023/10/10 08:31:39;;;;;;;69.00;35.92;;;16.60;99.90;;;;;;5087258;28;20108;-68
2023/10/10 08:34:09;;;;;;;69.25;34.00;;;16.70;99.90;;;;;;5091451;28;20051;-68
2023/10/10 08:36:35;;;;;;;73.90;37.42;;;;;;;;;;5090085;28;20136;-68
2023/10/10 08:41:42;;;;;;;74.15;36.88;;;16.70;99.90;;;;;;5087750;28;20097;-69
2023/10/10 08:44:14;;;;;;;63.60;33.72;;;16.70;99.90;;;;;;5077984;28;20450;-68
2023/10/10 08:46:41;;;;;;;66.78;35.70;;;16.70;99.90;;;;;;5086878;28;20047;-68
2023/10/10 08:49:08;;;;;;;73.90;34.40;;;;;;;;;;5089025;28;20048;-69
2023/10/10 08:51:35;;;;;;;63.30;32.90;;;16.90;99.90;;;;;;5087765;28;20047;-68
2023/10/10 08:54:02;;;;;;;68.45;35.15;;;16.90;99.90;;;;;;5088004;28;20155;-69
2023/10/10 08:56:37;;;;;;;72.00;37.30;;;17.20;99.90;;;;;;5088945;28;20120;-69
2023/10/10 08:59:03;;;;;;;;;;;17.10;99.90;;;;;;5083794;28;20508;-69
2023/10/10 09:01:33;;;;;;;64.85;35.45;;;17.30;99.90;;;;;;5090794;28;19924;-69
2023/10/10 09:04:00;;;;;;;68.45;32.95;;;17.60;99.90;;;;;;5091131;28;20036;-68
2023/10/10 09:06:34;;;;;;;65.35;33.67;;;17.60;99.90;;;;;;5095050;28;20074;-68
2023/10/10 09:09:32;;;;;;;56.40;31.13;;;17.70;99.90;;;;;;5089746;28;20481;-68
2023/10/10 09:11:47;;;;;;;58.60;30.52;;;17.80;99.90;;;;;;5088489;28;20051;-68
2023/10/10 09:14:13;;;;;;;54.88;30.20;;;17.90;99.90;;;;;;5089197;28;20044;-69
2023/10/10 09:16:44;;;;;;;56.40;29.52;;;17.90;99.90;;;;;;5088489;28;20044;-74
2023/10/10 09:19:10;;;;;;;56.83;31.85;;;;;;;;;;5083874;28;20036;-68
2023/10/10 09:21:56;;;;;;;52.88;28.08;;;19.40;99.90;;;;;;5086621;28;20047;-68
2023/10/10 09:24:31;;;;;;;46.55;26.58;;;;;;;;;;5086809;28;20060;-68
2023/10/10 09:26:59;;;;;;;47.22;26.45;;;20.20;99.90;;;;;;5088702;28;20507;-68
2023/10/10 09:29:34;;;;;;;42.75;23.98;;;20.40;99.90;;;;;;5089341;28;20048;-68
2023/10/10 09:32:00;;;;;;;;;;;20.50;99.90;;;;;;5086056;28;20036;-69
2023/10/10 09:34:35;;;;;;;44.95;23.75;;;20.20;99.90;;;;;;5088024;28;19920;-69
2023/10/10 09:37:07;;;;;;;40.28;23.75;;;20.20;99.90;;;;;;5087909;28;20097;-68
2023/10/10 09:39:41;;;;;;;40.50;23.25;;;20.10;99.90;;;;;;5086170;28;20060;-68
2023/10/10 09:42:23;;;;;;;37.97;23.13;;;;;;;;;;5087402;28;20048;-68
2023/10/10 09:44:56;;;;;;;44.83;24.38;;;20.10;99.90;;;;;;5082163;28;20132;-68
2023/10/10 09:47:55;;;;;;;40.53;23.63;;;20.10;99.90;;;;;;5087265;28;20040;-69
2023/10/10 09:52:57;;;;;;;44.53;23.80;;;20.30;99.90;;;;;;5085252;28;20063;-68
2023/10/10 09:58:00;;;;;;;41.65;22.83;;;21.10;99.90;;;;;;5084825;28;20513;-68
2023/10/10 10:00:35;;;;;;;37.40;22.05;;;21.80;99.90;;;;;;5086391;28;20046;-69
2023/10/10 10:03:31;;;;;;;36.03;20.58;;;23.10;99.90;;;;;;5086358;28;20052;-68
2023/10/10 10:06:34;;;;;;;37.38;21.30;;;22.10;99.90;;;;;;5085414;28;20135;-69
2023/10/10 10:09:45;;;;;;;34.83;20.85;;;21.80;99.90;;;;;;5084178;28;20044;-68
2023/10/10 10:12:45;;;;;;;34.50;19.50;;;21.60;99.90;;;;;;5039152;28;20502;-68
2023/10/10 10:15:20;;;;;;;36.13;20.80;;;21.20;99.90;;;;;;5026650;28;20087;-69
2023/10/10 10:17:48;;;;;;;;;;;20.70;99.90;;;;;;5074547;28;20054;-68
2023/10/10 10:21:02;;;;;;;36.15;21.17;;;20.30;99.90;;;;;;5086710;28;19920;-68
2023/10/10 10:23:33;;;;;;;33.30;20.00;;;19.80;99.90;;;;;;5086742;28;20067;-68
2023/10/10 10:26:05;;;;;;;38.03;21.98;;;19.90;99.90;;;;;;5092859;28;20039;-68
2023/10/10 10:28:37;;;;;;;37.67;21.83;;;19.80;99.90;;;;;;5086896;28;20035;-68
2023/10/10 10:31:28;;;;;;;35.10;21.25;;;19.80;99.90;;;;;;5087755;28;20040;-69
2023/10/10 10:34:23;;;;;;;36.38;21.88;;;19.90;99.90;;;;;;5089267;28;20039;-68
2023/10/10 10:36:55;;;;;;;35.83;21.00;;;19.80;99.90;;;;;;5086299;28;20119;-68
2023/10/10 10:39:33;;;;;;;33.72;21.38;;;19.80;99.90;;;;;;5086870;28;20052;-68
2023/10/10 10:42:00;;;;;;;34.63;20.73;;;19.80;99.90;;;;;;5080763;28;20043;-68
2023/10/10 10:44:45;;;;;;;39.22;23.08;;;19.90;99.90;;;;;;5088162;28;20047;-68
2023/10/10 10:47:30;;;;;;;37.08;22.27;;;19.90;99.90;;;;;;5085744;28;20044;-68
2023/10/10 10:49:57;;;;;;;36.85;21.55;;;;;;;;;;5075210;28;20500;-68
2023/10/10 10:52:43;;;;;;;36.20;22.00;;;20.10;99.90;;;;;;5082373;28;20047;-68
2023/10/10 10:56:24;;;;;;;36.38;21.88;;;19.90;99.90;;;;;;5086310;28;20108;-68
2023/10/10 10:58:20;;;;;;;36.78;22.08;;;20.00;99.90;;;;;;5079311;28;20044;-68
2023/10/10 11:01:07;;;;;;;35.38;21.30;;;20.00;99.90;;;;;;5085265;28;20044;-68
2023/10/10 11:03:38;;;;;;;30.75;19.05;;;19.80;99.90;;;;;;5087363;28;20101;-68
2023/10/10 11:06:09;;;;;;;37.80;20.95;;;20.30;99.90;;;;;;5084673;28;20158;-68
2023/10/10 11:14:00;;;;;;;34.80;19.42;;;20.20;99.90;;;;;;5080189;28;20444;-68
2023/10/10 11:16:45;;;;;;;29.40;18.05;;;20.20;99.90;;;;;;5091247;28;20690;-68
2023/10/10 11:21:54;;;;;;;32.00;18.58;;;20.30;99.90;;;;;;5086145;28;20055;-68
2023/10/10 11:24:25;;;;;;;31.00;18.98;;;20.30;99.90;;;;;;5086157;28;20494;-68
2023/10/10 11:30:00;;;;;;;31.30;17.98;;;20.30;99.90;;;;;;5085651;28;20368;-68
2023/10/10 11:32:29;;;;;;;32.85;17.63;;;20.30;99.90;;;;;;5082115;28;20397;-68
2023/10/10 11:37:59;;;;;;;28.63;17.50;;;20.20;99.90;;;;;;5089003;28;20230;-68
2023/10/10 11:43:05;;;;;;;29.15;17.13;;;20.00;99.90;;;;;;5087568;28;20056;-68
2023/10/10 11:45:51;;;;;;;28.98;17.40;;;19.80;99.90;;;;;;5063325;28;20619;-68
2023/10/10 11:48:17;;;;;;;31.67;17.70;;;19.90;99.90;;;;;;5084313;28;20054;-69
2023/10/10 11:50:45;;;;;;;30.65;19.33;;;19.90;99.90;;;;;;5084390;28;20048;-69
2023/10/10 11:53:19;;;;;;;32.30;17.80;;;19.90;99.90;;;;;;5076509;28;20040;-69
2023/10/10 11:55:45;;;;;;;32.22;17.25;;;19.90;99.90;;;;;;5085091;28;20143;-69
2023/10/10 11:58:20;;;;;;;32.58;18.05;;;19.80;99.90;;;;;;5088144;28;20047;-68
2023/10/10 12:01:03;;;;;;;27.77;18.23;;;20.00;99.90;;;;;;5089997;28;20051;-68
2023/10/10 12:06:04;;;;;;;29.20;19.73;;;20.10;99.90;;;;;;5085079;28;20044;-68
2023/10/10 12:08:29;;;;;;;36.80;19.30;;;20.10;99.90;;;;;;5075326;28;20135;-68
2023/10/10 12:11:12;;;;;;;29.13;17.33;;;20.00;99.90;;;;;;5089658;28;20092;-68
2023/10/10 12:13:38;;;;;;;27.67;17.38;;;20.10;99.90;;;;;;5082207;28;20056;-68
2023/10/10 12:16:10;;;;;;;28.77;16.90;;;20.00;99.90;;;;;;5088576;28;20067;-68
2023/10/10 12:18:43;;;;;;;31.35;18.90;;;20.30;99.90;;;;;;5087543;28;20048;-68
2023/10/10 12:21:10;;;;;;;31.73;19.58;;;20.40;99.90;;;;;;5084408;28;20486;-68
2023/10/10 12:23:36;;;;;;;26.92;18.38;;;20.50;99.90;;;;;;5088057;28;20054;-69
2023/10/10 12:26:04;;;;;;;30.05;18.75;;;20.10;99.90;;;;;;5084418;28;20032;-68
2023/10/10 12:28:30;;;;;;;31.13;18.20;;;20.10;99.90;;;;;;5090814;28;20071;-68
2023/10/10 12:31:02;;;;;;;25.88;16.42;;;20.00;99.90;;;;;;5086052;28;20063;-68
2023/10/10 12:33:28;;;;;;;28.20;16.10;;;20.10;99.90;;;;;;5085489;28;20051;-68
2023/10/10 12:35:56;;;;;;;27.00;16.63;;;19.90;99.90;;;;;;5085448;28;20032;-67
2023/10/10 12:38:22;;;;;;;25.23;16.98;;;19.70;99.90;;;;;;5085422;28;20062;-68
2023/10/10 12:40:48;;;;;;;27.02;16.80;;;19.60;99.90;;;;;;5085385;28;20220;-68
2023/10/10 12:43:14;;;;;;;29.13;18.48;;;19.60;99.90;;;;;;5066928;28;20047;-68
2023/10/10 12:45:40;;;;;;;32.97;17.80;;;19.70;99.90;;;;;;5083990;28;20044;-69
2023/10/10 12:48:13;;;;;;;31.35;17.17;;;19.50;99.90;;;;;;5078303;28;20036;-68
2023/10/10 12:50:41;;;;;;;29.60;18.20;;;19.20;99.90;;;;;;5085969;28;20032;-69
2023/10/10 12:53:15;;;;;;;31.80;17.92;;;19.50;99.90;;;;;;5086871;28;20136;-69
2023/10/10 12:55:52;;;;;;;28.15;18.42;;;19.40;99.90;;;;;;5083771;28;20051;-68
2023/10/10 12:58:20;;;;;;;29.10;17.55;;;19.60;99.90;;;;;;5080714;28;20064;-68
2023/10/10 13:00:50;;;;;;;32.15;17.80;;;19.50;99.90;;;;;;5085972;28;20047;-68
2023/10/10 13:03:23;;;;;;;28.63;17.65;;;20.60;99.90;;;;;;5084810;28;20452;-68
2023/10/10 13:05:52;;;;;;;35.67;18.55;;;19.50;99.90;;;;;;5068377;28;20036;-68
2023/10/10 13:08:24;;;;;;;31.58;19.55;;;19.50;99.90;;;;;;5090188;28;20047;-68
2023/10/10 13:10:55;;;;;;;30.65;18.23;;;19.60;99.90;;;;;;5080594;28;20048;-68
2023/10/10 13:13:31;;;;;;;32.08;18.00;;;19.60;99.90;;;;;;5087145;28;20048;-68
2023/10/10 13:16:21;;;;;;;32.42;19.35;;;21.40;99.90;;;;;;5087054;28;20857;-68
2023/10/10 13:18:48;;;;;;;26.85;17.55;;;19.60;99.90;;;;;;5087656;28;20075;-68
2023/10/10 13:21:14;;;;;;;33.15;18.23;;;19.70;99.90;;;;;;5086385;28;20133;-72
2023/10/10 13:23:43;;;;;;;33.65;19.15;;;20.60;99.90;;;;;;5092142;28;20051;-72
2023/10/10 13:26:10;;;;;;;30.88;18.85;;;19.80;99.90;;;;;;5090817;28;20111;-73
2023/10/10 13:28:36;;;;;;;37.58;19.88;;;20.10;99.90;;;;;;5093950;28;20124;-72
2023/10/10 13:31:02;;;;;;;38.97;18.90;;;19.90;99.90;;;;;;5070815;28;20036;-69
2023/10/10 13:33:28;;;;;;;35.70;18.02;;;20.00;99.90;;;;;;5085194;28;20043;-69
2023/10/10 13:35:54;;;;;;;32.17;19.45;;;20.20;99.90;;;;;;5087334;28;20075;-69
2023/10/10 13:38:19;;;;;;;39.17;19.48;;;20.20;99.90;;;;;;5089098;28;20095;-69
2023/10/10 13:40:48;;;;;;;32.22;18.42;;;20.20;99.90;;;;;;5093832;28;20051;-69
2023/10/10 13:43:18;;;;;;;32.30;19.92;;;20.20;99.90;;;;;;5088890;28;20079;-69
2023/10/10 13:45:45;;;;;;;31.20;17.38;;;21.30;99.90;;;;;;5090149;28;20036;-69
2023/10/10 13:48:14;;;;;;;35.30;19.65;;;20.30;99.90;;;;;;5084196;28;20098;-69
2023/10/10 13:50:43;;;;;;;27.13;17.20;;;21.30;99.90;;;;;;5091654;28;20046;-69
2023/10/10 13:53:12;;;;;;;33.40;18.70;;;19.90;99.90;;;;;;5088106;28;20036;-69
2023/10/10 13:55:40;;;;;;;30.33;17.85;;;20.20;99.90;;;;;;5089105;28;20054;-69
2023/10/10 13:58:07;;;;;;;30.33;17.55;;;20.70;99.90;;;;;;5089635;28;20511;-69
2023/10/10 14:00:42;;;;;;;27.15;18.20;;;20.00;99.90;;;;;;5091739;28;20044;-69
2023/10/10 14:03:08;;;;;;;29.95;17.85;;;20.00;99.90;;;;;;5094477;28;20513;-69
2023/10/10 14:05:39;;;;;;;26.45;16.33;;;20.10;99.90;;;;;;5092621;28;20165;-69
2023/10/10 14:08:17;;;;;;;26.80;16.17;;;20.20;99.90;;;;;;5088597;28;20050;-69
2023/10/10 14:10:43;;;;;;;22.48;15.63;;;20.10;99.90;;;;;;5079732;28;20454;-69
2023/10/10 14:13:18;;;;;;;30.35;16.77;;;20.30;99.90;;;;;;5089137;28;20036;-69
2023/10/10 14:15:54;;;;;;;28.02;16.90;;;20.00;99.90;;;;;;5088854;28;20097;-69
2023/10/10 14:18:23;;;;;;;25.98;16.02;;;20.10;99.90;;;;;;5087237;28;20113;-69
2023/10/10 14:20:50;;;;;;;26.25;16.33;;;20.20;99.90;;;;;;5087724;28;20039;-69
2023/10/10 14:23:25;;;;;;;28.85;16.35;;;20.10;99.90;;;;;;5086618;28;20517;-69
2023/10/10 14:25:51;;;;;;;30.25;15.98;;;20.20;99.90;;;;;;5075462;28;20067;-69
2023/10/10 14:28:18;;;;;;;30.13;17.63;;;20.10;99.90;;;;;;5082246;28;20047;-68
2023/10/10 14:30:48;;;;;;;30.65;16.75;;;20.10;99.90;;;;;;5094603;28;20043;-68
2023/10/10 14:33:15;;;;;;;28.05;16.67;;;20.20;99.90;;;;;;5090151;28;20841;-68
2023/10/10 14:35:41;;;;;;;32.60;17.58;;;20.10;99.90;;;;;;5087417;28;20417;-68
2023/10/10 14:38:07;;;;;;;26.35;17.60;;;;;;;;;;5085673;28;20044;-68
2023/10/10 14:40:34;;;;;;;28.08;17.58;;;20.00;99.90;;;;;;5085754;28;20131;-68
2023/10/10 14:43:05;;;;;;;30.50;16.60;;;20.00;99.90;;;;;;5085584;28;20154;-68
2023/10/10 14:45:32;;;;;;;25.92;16.63;;;20.00;99.90;;;;;;5085773;28;20553;-68
2023/10/10 14:47:58;;;;;;;29.33;17.70;;;20.00;99.90;;;;;;5085477;28;20048;-69
2023/10/10 14:50:24;;;;;;;27.60;16.95;;;19.90;99.90;;;;;;5085670;28;20405;-68
2023/10/10 14:52:53;;;;;;;29.35;16.67;;;20.00;99.90;;;;;;5093245;28;20035;-68
2023/10/10 14:55:25;;;;;;;27.58;16.88;;;20.10;99.90;;;;;;5085975;28;20101;-68
2023/10/10 14:57:55;;;;;;;27.88;16.48;;;20.00;99.90;;;;;;5085488;28;20051;-68
2023/10/10 15:00:25;;;;;;;28.90;17.02;;;20.00;99.90;;;;;;5085601;28;20052;-69
2023/10/10 15:02:53;;;;;;;24.38;16.40;;;19.90;99.90;;;;;;5085856;28;20055;-69
2023/10/10 15:05:26;;;;;;;26.85;16.77;;;20.00;99.90;;;;;;5090948;28;20046;-68
2023/10/10 15:07:55;;;;;;;29.38;14.93;;;19.90;99.90;;;;;;5088717;28;20047;-68
2023/10/10 15:10:25;;;;;;;24.67;15.20;;;19.90;99.90;;;;;;5088299;28;20050;-68
2023/10/10 15:12:53;;;;;;;24.05;14.80;;;19.90;99.90;;;;;;5084747;28;20040;-69
2023/10/10 15:15:18;;;;;;;23.10;15.15;;;19.80;99.90;;;;;;5089134;28;20404;-69
2023/10/10 15:17:45;;;;;;;24.98;15.05;;;19.90;99.90;;;;;;5088772;28;20036;-69
2023/10/10 15:20:14;;;;;;;25.92;14.27;;;19.90;99.90;;;;;;5086812;28;20040;-69
2023/10/10 15:22:41;;;;;;;30.05;14.73;;;20.00;99.90;;;;;;5086354;28;20451;-69
2023/10/10 15:25:10;;;;;;;28.45;13.90;;;19.90;99.90;;;;;;5081819;28;20058;-69
2023/10/10 15:27:40;;;;;;;23.45;14.05;;;20.10;99.90;;;;;;5085778;28;20062;-69
2023/10/10 15:30:08;;;;;;;24.40;14.32;;;20.10;99.90;;;;;;5085824;28;20308;-68
2023/10/10 15:32:43;;;;;;;24.67;14.32;;;20.10;99.90;;;;;;5089661;28;20474;-69
2023/10/10 15:35:10;;;;;;;21.48;13.27;;;21.60;99.90;;;;;;5087910;28;20497;-69
2023/10/10 15:37:42;;;;;;;22.88;13.48;;;20.00;99.90;;;;;;5084039;28;20054;-69
2023/10/10 15:40:13;;;;;;;27.48;14.52;;;20.00;99.90;;;;;;5086265;28;20111;-68
2023/10/10 15:42:39;;;;;;;20.23;12.75;;;20.00;99.90;;;;;;5084145;28;20048;-69
2023/10/10 15:45:05;;;;;;;27.10;12.35;;;19.90;99.90;;;;;;5090199;28;20063;-68
2023/10/10 15:47:31;;;;;;;22.33;12.85;;;19.90;99.90;;;;;;5079179;28;20085;-69